Time;durP1;ratioP1;P1;durP2;ratioP2;P2;SDS_P1;SDS_P2;PMS_P1;PMS_P2;Temp;Humidity;BMP_temperature;BMP_pressure;BME280_temperature;BME280_humidity;BME280_pressure;Samples;Min_cycle;Max_cycle;Signal;HPM_P1;HPM_P2
2023/12/11 00:01:38;;;;;;;6.63;0.95;;;9.20;99.90;;;;;;4978975;28;20149;-70
2023/12/11 00:04:04;;;;;;;7.25;1.88;;;9.20;99.90;;;;;;4963541;28;20477;-70
2023/12/11 00:06:30;;;;;;;8.27;0.77;;;9.20;99.90;;;;;;4947727;28;20189;-70
2023/12/11 00:08:55;;;;;;;17.00;1.95;;;9.20;99.90;;;;;;4973947;28;20137;-70
2023/12/11 00:11:22;;;;;;;1.50;0.30;;;9.20;99.90;;;;;;4981306;28;20112;-70
2023/12/11 00:13:48;;;;;;;9.10;1.88;;;9.30;99.90;;;;;;4983455;28;20117;-70
2023/12/11 00:16:16;;;;;;;1.08;0.75;;;9.30;99.90;;;;;;4985109;28;20706;-69
2023/12/11 00:18:42;;;;;;;9.23;1.80;;;9.30;99.90;;;;;;4984453;28;20061;-70
2023/12/11 00:21:08;;;;;;;9.98;1.77;;;9.30;99.90;;;;;;4967021;28;20046;-70
2023/12/11 00:23:33;;;;;;;0.25;0.25;;;9.30;99.90;;;;;;4967813;28;20382;-70
2023/12/11 00:25:59;;;;;;;6.68;1.65;;;9.20;99.90;;;;;;4967547;28;20125;-70
2023/12/11 00:28:25;;;;;;;16.55;2.15;;;9.20;99.90;;;;;;4984751;28;20035;-69
2023/12/11 00:30:51;;;;;;;18.80;2.40;;;9.20;99.90;;;;;;4966798;28;20061;-69
2023/12/11 00:33:17;;;;;;;19.83;2.60;;;9.20;99.90;;;;;;4966594;28;20551;-70
2023/12/11 00:35:44;;;;;;;13.50;2.25;;;9.10;99.90;;;;;;4985008;28;20047;-70
2023/12/11 00:38:10;;;;;;;13.43;2.83;;;9.10;99.90;;;;;;4984803;28;20046;-69
2023/12/11 00:40:36;;;;;;;11.10;1.70;;;9.00;99.90;;;;;;4984463;28;20501;-70
2023/12/11 00:43:01;;;;;;;16.73;2.33;;;9.00;99.90;;;;;;4984789;28;20337;-70
2023/12/11 00:45:27;;;;;;;18.38;2.58;;;9.00;99.90;;;;;;4967229;28;20472;-69
2023/12/11 00:47:53;;;;;;;17.20;2.38;;;8.90;99.90;;;;;;4985376;28;20050;-69
2023/12/11 00:50:19;;;;;;;23.88;2.58;;;8.90;99.90;;;;;;4984605;28;20508;-70
2023/12/11 00:52:45;;;;;;;19.90;2.42;;;8.80;99.90;;;;;;4982972;28;20081;-70
2023/12/11 00:55:10;;;;;;;28.48;3.13;;;8.70;99.90;;;;;;4999352;28;20050;-70
2023/12/11 00:57:36;;;;;;;10.05;1.55;;;8.70;99.90;;;;;;4984035;28;20035;-69
2023/12/11 01:00:02;;;;;;;22.15;3.53;;;8.70;99.90;;;;;;4984024;28;20042;-70
2023/12/11 01:02:28;;;;;;;24.77;2.92;;;8.70;99.90;;;;;;5001118;28;20064;-69
2023/12/11 01:04:54;;;;;;;26.30;2.65;;;8.60;99.90;;;;;;5006534;28;20041;-70
2023/12/11 01:07:20;;;;;;;15.05;2.38;;;8.60;99.90;;;;;;5011248;28;20048;-70
2023/12/11 01:09:46;;;;;;;30.00;3.53;;;8.60;99.90;;;;;;5017453;28;20050;-70
2023/12/11 01:12:11;;;;;;;29.75;3.35;;;8.60;99.90;;;;;;5015104;28;20512;-69
2023/12/11 01:14:37;;;;;;;32.65;4.28;;;8.50;99.90;;;;;;5005134;28;20049;-70
2023/12/11 01:17:03;;;;;;;20.05;3.20;;;8.50;99.90;;;;;;5005522;28;20579;-69
2023/12/11 01:19:30;;;;;;;11.15;1.98;;;8.50;99.90;;;;;;5009276;28;20049;-70
2023/12/11 01:21:56;;;;;;;48.65;4.68;;;8.50;99.90;;;;;;5015394;28;20531;-69
2023/12/11 01:24:22;;;;;;;24.63;4.28;;;8.50;99.90;;;;;;5016380;28;20077;-70
2023/12/11 01:26:48;;;;;;;32.70;3.92;;;8.50;99.90;;;;;;5023309;28;20479;-70
2023/12/11 01:29:13;;;;;;;30.25;3.78;;;8.50;99.90;;;;;;5023409;28;20072;-70
2023/12/11 01:31:39;;;;;;;33.35;3.80;;;8.50;99.90;;;;;;4998420;28;20549;-70
2023/12/11 01:34:05;;;;;;;14.00;2.67;;;8.50;99.90;;;;;;5012994;28;20119;-70
2023/12/11 01:36:30;;;;;;;35.22;4.25;;;8.50;99.90;;;;;;5009293;28;20050;-70
2023/12/11 01:38:57;;;;;;;35.03;3.78;;;8.50;99.90;;;;;;5023108;28;20053;-69
2023/12/11 01:41:22;;;;;;;28.38;3.35;;;8.50;99.90;;;;;;5023351;28;20061;-69
2023/12/11 01:43:56;;;;;;;26.33;3.38;;;8.60;99.90;;;;;;5021139;28;20545;-70
2023/12/11 01:46:23;;;;;;;26.95;3.35;;;8.60;99.90;;;;;;5022948;28;20058;-69
2023/12/11 01:48:49;;;;;;;39.55;3.42;;;8.60;99.90;;;;;;5004722;28;20375;-70
2023/12/11 01:51:17;;;;;;;25.92;3.83;;;8.60;99.90;;;;;;5022438;28;20091;-70
2023/12/11 01:53:45;;;;;;;29.88;3.78;;;8.60;99.90;;;;;;5022513;28;20148;-70
2023/12/11 01:56:11;;;;;;;30.67;3.97;;;8.60;99.90;;;;;;5022487;28;20432;-70
2023/12/11 01:58:37;;;;;;;32.30;4.05;;;8.60;99.90;;;;;;5022567;28;20057;-70
2023/12/11 02:01:04;;;;;;;16.67;3.15;;;8.60;99.90;;;;;;5019629;28;20205;-70
2023/12/11 02:03:29;;;;;;;24.05;3.30;;;8.60;99.90;;;;;;4966864;28;20054;-70
2023/12/11 02:05:55;;;;;;;33.17;4.70;;;8.60;99.90;;;;;;4983351;28;20042;-70
2023/12/11 02:08:21;;;;;;;29.38;3.78;;;8.60;99.90;;;;;;4965472;28;20046;-70
2023/12/11 02:10:47;;;;;;;35.30;4.35;;;8.60;99.90;;;;;;4982482;28;20100;-70
2023/12/11 02:13:13;;;;;;;29.55;3.22;;;8.60;99.90;;;;;;4965221;28;20042;-70
2023/12/11 02:15:43;;;;;;;36.95;3.88;;;8.50;99.90;;;;;;4965334;28;20125;-70
2023/12/11 02:18:10;;;;;;;17.38;2.92;;;8.50;99.90;;;;;;4982994;28;20042;-70
2023/12/11 02:20:37;;;;;;;21.88;4.05;;;8.50;99.90;;;;;;4982826;28;20086;-70
2023/12/11 02:23:24;;;;;;;8.55;1.58;;;8.60;99.90;;;;;;4965054;28;20050;-70
2023/12/11 02:26:00;;;;;;;28.90;3.65;;;8.70;99.90;;;;;;4982060;28;20417;-69
2023/12/11 02:28:26;;;;;;;40.78;4.38;;;8.80;99.90;;;;;;4963931;28;20123;-70
2023/12/11 02:30:51;;;;;;;23.08;2.80;;;8.70;99.90;;;;;;4970913;28;20054;-70
2023/12/11 02:33:17;;;;;;;39.47;4.32;;;8.70;99.90;;;;;;4978199;28;20049;-70
2023/12/11 02:35:46;;;;;;;45.67;4.47;;;8.70;99.90;;;;;;4953669;28;20440;-69
2023/12/11 02:38:12;;;;;;;38.13;4.38;;;8.80;99.90;;;;;;4957312;28;20351;-69
2023/12/11 02:40:37;;;;;;;37.80;4.82;;;8.80;99.90;;;;;;4963103;28;20047;-68
2023/12/11 02:43:03;;;;;;;22.90;3.60;;;8.80;99.90;;;;;;4977715;28;20081;-68
2023/12/11 02:45:29;;;;;;;26.83;3.47;;;8.80;99.90;;;;;;4965091;28;20446;-68
2023/12/11 02:48:02;;;;;;;16.05;2.28;;;8.80;99.90;;;;;;4952243;28;20046;-70
2023/12/11 02:50:31;;;;;;;21.50;2.88;;;8.80;99.90;;;;;;4961797;28;20094;-70
2023/12/11 02:53:01;;;;;;;26.13;3.13;;;8.80;99.90;;;;;;4982114;28;20042;-70
2023/12/11 02:55:27;;;;;;;36.20;3.78;;;8.80;99.90;;;;;;4972940;28;20055;-70
2023/12/11 02:58:03;;;;;;;33.13;5.13;;;8.70;99.90;;;;;;4964139;28;20058;-70
2023/12/11 03:00:30;;;;;;;40.42;4.28;;;8.70;99.90;;;;;;4957481;28;20430;-70
2023/12/11 03:02:57;;;;;;;36.60;4.78;;;8.80;99.90;;;;;;4961046;28;20156;-70
2023/12/11 03:05:23;;;;;;;19.75;2.72;;;8.70;99.90;;;;;;5001247;28;20034;-70
2023/12/11 03:07:49;;;;;;;30.58;3.67;;;8.70;99.90;;;;;;5001544;28;20109;-70
2023/12/11 03:10:15;;;;;;;44.65;4.07;;;8.70;99.90;;;;;;5000883;28;20046;-70
2023/12/11 03:12:41;;;;;;;26.23;2.88;;;8.70;99.90;;;;;;5019274;28;20041;-70
2023/12/11 03:15:09;;;;;;;39.58;4.03;;;8.60;99.90;;;;;;4993183;28;20126;-70
2023/12/11 03:17:35;;;;;;;36.17;3.65;;;8.70;99.90;;;;;;5020812;28;20172;-70
2023/12/11 03:20:01;;;;;;;27.20;3.33;;;8.70;99.90;;;;;;5021120;28;20049;-70
2023/12/11 03:22:27;;;;;;;39.28;4.40;;;8.70;99.90;;;;;;5002946;28;20591;-70
2023/12/11 03:24:54;;;;;;;18.67;2.92;;;8.70;99.90;;;;;;5012704;28;20042;-70
2023/12/11 03:27:20;;;;;;;37.72;3.35;;;8.70;99.90;;;;;;5020630;28;20037;-70
2023/12/11 03:29:48;;;;;;;19.40;3.25;;;8.80;99.90;;;;;;5003526;28;20049;-70
2023/12/11 03:32:14;;;;;;;40.22;4.55;;;8.80;99.90;;;;;;5018766;28;20412;-70
2023/12/11 03:34:40;;;;;;;29.00;3.67;;;8.70;99.90;;;;;;5014716;28;20179;-69
2023/12/11 03:37:06;;;;;;;33.55;3.95;;;8.70;99.90;;;;;;5020489;28;20115;-70
2023/12/11 03:39:32;;;;;;;29.58;4.63;;;8.70;99.90;;;;;;5020238;28;20045;-70
2023/12/11 03:41:58;;;;;;;22.10;2.20;;;8.70;99.90;;;;;;5003037;28;20053;-70
2023/12/11 03:44:24;;;;;;;41.50;4.07;;;8.80;99.90;;;;;;4999398;28;20924;-69
2023/12/11 03:46:50;;;;;;;31.40;4.10;;;8.70;99.90;;;;;;5019947;28;20600;-70
2023/12/11 03:49:18;;;;;;;27.60;3.70;;;8.70;99.90;;;;;;5002827;28;20124;-70
2023/12/11 03:51:46;;;;;;;31.25;4.28;;;8.60;99.90;;;;;;5003074;28;20053;-69
2023/12/11 03:54:11;;;;;;;46.45;3.92;;;8.70;99.90;;;;;;5002947;28;20570;-70
2023/12/11 03:56:39;;;;;;;31.20;3.83;;;8.70;99.90;;;;;;4999319;28;20045;-70
2023/12/11 03:59:05;;;;;;;25.30;3.22;;;8.70;99.90;;;;;;5020413;28;20048;-70
2023/12/11 04:01:31;;;;;;;57.75;5.45;;;8.70;99.90;;;;;;4995234;28;20054;-69
2023/12/11 04:03:57;;;;;;;49.33;4.97;;;8.70;99.90;;;;;;5021090;28;20552;-69
2023/12/11 04:06:22;;;;;;;40.20;4.65;;;8.70;99.90;;;;;;5008935;28;20121;-70
2023/12/11 04:08:48;;;;;;;45.88;4.82;;;8.70;99.90;;;;;;5000908;28;20859;-69
2023/12/11 04:11:14;;;;;;;31.48;4.10;;;8.70;99.90;;;;;;4988903;28;20041;-69
2023/12/11 04:13:40;;;;;;;27.23;3.60;;;8.70;99.90;;;;;;5020484;28;20052;-70
2023/12/11 04:16:05;;;;;;;38.13;5.07;;;8.60;99.90;;;;;;5000671;28;20038;-69
2023/12/11 04:18:32;;;;;;;25.23;3.65;;;8.60;99.90;;;;;;4992159;28;20047;-70
2023/12/11 04:20:58;;;;;;;53.72;5.53;;;8.60;99.90;;;;;;4997681;28;20046;-70
2023/12/11 04:23:24;;;;;;;42.58;4.43;;;8.60;99.90;;;;;;4987253;28;20052;-70
2023/12/11 04:25:51;;;;;;;46.97;5.03;;;8.70;99.90;;;;;;5004477;28;20220;-69
2023/12/11 04:28:17;;;;;;;50.35;5.43;;;8.70;99.90;;;;;;4985158;28;20405;-70
2023/12/11 04:30:43;;;;;;;38.65;4.32;;;8.70;99.90;;;;;;5006612;28;20501;-70
2023/12/11 04:33:09;;;;;;;31.65;4.45;;;8.70;99.90;;;;;;4987334;28;20064;-69
2023/12/11 04:35:34;;;;;;;28.38;4.30;;;8.70;99.90;;;;;;5002387;28;20053;-69
2023/12/11 04:38:00;;;;;;;30.10;3.38;;;8.70;99.90;;;;;;4989819;28;20322;-70
2023/12/11 04:40:27;;;;;;;42.08;4.85;;;8.80;99.90;;;;;;5012459;28;20144;-69
2023/12/11 04:42:52;;;;;;;43.53;4.53;;;8.70;99.90;;;;;;5016079;28;20136;-70
2023/12/11 04:45:18;;;;;;;33.72;4.03;;;8.80;99.90;;;;;;4979757;28;20627;-70
2023/12/11 04:47:44;;;;;;;50.15;5.70;;;8.70;99.90;;;;;;4978831;28;20129;-70
2023/12/11 04:50:09;;;;;;;35.95;4.68;;;8.70;99.90;;;;;;4978695;28;20042;-70
2023/12/11 04:52:35;;;;;;;37.25;4.72;;;8.70;99.90;;;;;;5003713;28;20041;-69
2023/12/11 04:55:01;;;;;;;53.85;4.43;;;8.80;99.90;;;;;;4989967;28;20089;-69
2023/12/11 04:57:27;;;;;;;57.85;5.43;;;8.90;99.90;;;;;;5007926;28;20087;-70
2023/12/11 04:59:52;;;;;;;48.10;5.07;;;8.80;99.90;;;;;;5010150;28;20451;-70
2023/12/11 05:02:18;;;;;;;16.42;2.58;;;8.90;99.90;;;;;;4988678;28;20060;-69
2023/12/11 05:04:44;;;;;;;22.02;3.40;;;8.90;99.90;;;;;;5020513;28;20045;-69
2023/12/11 05:07:09;;;;;;;42.75;4.68;;;8.90;99.90;;;;;;4986144;28;20072;-70
2023/12/11 05:09:35;;;;;;;38.85;4.07;;;8.90;99.90;;;;;;5003763;28;20030;-69
2023/12/11 05:12:01;;;;;;;39.15;3.80;;;8.90;99.90;;;;;;5016068;28;20202;-70
2023/12/11 05:14:27;;;;;;;39.33;5.10;;;9.00;99.90;;;;;;5023211;28;20180;-69
2023/12/11 05:16:52;;;;;;;44.03;4.50;;;9.00;99.90;;;;;;4996420;28;20133;-70
2023/12/11 05:19:18;;;;;;;30.90;3.72;;;8.90;99.90;;;;;;5001140;28;20511;-69
2023/12/11 05:21:44;;;;;;;31.30;3.90;;;9.00;99.90;;;;;;5007495;28;20096;-69
2023/12/11 05:24:11;;;;;;;19.38;3.38;;;8.90;99.90;;;;;;5003843;28;20053;-69
2023/12/11 05:26:37;;;;;;;12.50;2.35;;;9.00;99.90;;;;;;4993082;28;20077;-69
2023/12/11 05:29:04;;;;;;;20.10;3.28;;;8.90;99.90;;;;;;5005403;28;20089;-69
2023/12/11 05:31:33;;;;;;;39.00;4.13;;;8.90;99.90;;;;;;5015742;28;20449;-69
2023/12/11 05:33:59;;;;;;;41.65;4.80;;;8.90;99.90;;;;;;4997319;28;20045;-70
2023/12/11 05:36:25;;;;;;;36.40;4.95;;;9.00;99.90;;;;;;5022304;28;20046;-69
2023/12/11 05:38:50;;;;;;;34.60;3.72;;;9.00;99.90;;;;;;4997362;28;20613;-70
2023/12/11 05:41:17;;;;;;;48.33;4.55;;;9.00;99.90;;;;;;5022601;28;20061;-69
2023/12/11 05:43:43;;;;;;;27.02;3.45;;;9.00;99.90;;;;;;5023248;28;20483;-69
2023/12/11 05:46:09;;;;;;;20.15;2.83;;;8.90;99.90;;;;;;5019521;28;20129;-70
2023/12/11 05:48:34;;;;;;;44.47;4.60;;;9.00;99.90;;;;;;5004552;28;20037;-70
2023/12/11 05:51:00;;;;;;;21.75;3.50;;;8.90;99.90;;;;;;5005127;28;20871;-70
2023/12/11 05:53:26;;;;;;;37.67;3.58;;;8.90;99.90;;;;;;5013113;28;20107;-70
2023/12/11 05:55:52;;;;;;;40.88;4.00;;;8.90;99.90;;;;;;5013788;28;20460;-70
2023/12/11 05:58:18;;;;;;;37.55;4.32;;;8.90;99.90;;;;;;5017626;28;20045;-70
2023/12/11 06:00:44;;;;;;;31.92;3.70;;;8.90;99.90;;;;;;5004866;28;20541;-70
2023/12/11 06:03:10;;;;;;;36.88;3.88;;;8.90;99.90;;;;;;5010324;28;20159;-69
2023/12/11 06:05:36;;;;;;;41.35;4.30;;;8.90;99.90;;;;;;5004806;28;20172;-70
2023/12/11 06:08:02;;;;;;;24.08;3.72;;;8.90;99.90;;;;;;5022565;28;20062;-69
2023/12/11 06:10:29;;;;;;;36.75;3.70;;;8.90;99.90;;;;;;5007461;28;20052;-70
2023/12/11 06:12:55;;;;;;;33.72;4.30;;;8.90;99.90;;;;;;4999540;28;20048;-70
2023/12/11 06:15:22;;;;;;;33.90;4.05;;;8.80;99.90;;;;;;4979571;28;20400;-69
2023/12/11 06:17:48;;;;;;;28.45;3.47;;;8.90;99.90;;;;;;5001287;28;20051;-70
2023/12/11 06:20:14;;;;;;;25.85;3.80;;;8.80;99.90;;;;;;5022256;28;20390;-70
2023/12/11 06:22:39;;;;;;;35.10;3.95;;;8.90;99.90;;;;;;5013594;28;20440;-69
2023/12/11 06:25:06;;;;;;;30.92;3.88;;;8.90;99.90;;;;;;4992352;28;20356;-69
2023/12/11 06:27:31;;;;;;;34.45;4.13;;;8.80;99.90;;;;;;4973360;28;20048;-69
2023/12/11 06:29:57;;;;;;;23.55;2.65;;;8.80;99.90;;;;;;5018431;28;20045;-70
2023/12/11 06:32:23;;;;;;;25.05;3.20;;;8.90;99.90;;;;;;4989068;28;20061;-70
2023/12/11 06:34:49;;;;;;;38.10;4.03;;;8.80;99.90;;;;;;5003730;28;20473;-70
2023/12/11 06:37:14;;;;;;;32.63;3.17;;;8.90;99.90;;;;;;5012159;28;20049;-70
2023/12/11 06:39:41;;;;;;;20.30;3.45;;;8.80;99.90;;;;;;5004259;28;20041;-70
2023/12/11 06:42:08;;;;;;;34.47;4.13;;;8.80;99.90;;;;;;4995412;28;20144;-70
2023/12/11 06:44:35;;;;;;;31.25;2.95;;;8.80;99.90;;;;;;4984422;28;20152;-70
2023/12/11 06:47:01;;;;;;;36.85;3.53;;;8.80;99.90;;;;;;5022217;28;20060;-70
2023/12/11 06:49:27;;;;;;;35.42;3.47;;;8.80;99.90;;;;;;5003006;28;20053;-70
2023/12/11 06:51:55;;;;;;;28.95;4.00;;;8.80;99.90;;;;;;5022033;28;20115;-70
2023/12/11 06:54:21;;;;;;;29.05;4.07;;;8.80;99.90;;;;;;5020435;28;20049;-70
2023/12/11 06:56:47;;;;;;;27.83;3.70;;;8.80;99.90;;;;;;5005054;28;20038;-69
2023/12/11 06:59:12;;;;;;;18.05;2.75;;;8.80;99.90;;;;;;5021711;28;20044;-70
2023/12/11 07:01:39;;;;;;;33.88;4.20;;;8.80;99.90;;;;;;4979010;28;20685;-70
2023/12/11 07:04:05;;;;;;;28.83;3.45;;;8.80;99.90;;;;;;5001479;28;20052;-69
2023/12/11 07:06:31;;;;;;;18.50;2.08;;;8.80;99.90;;;;;;5011763;28;20045;-69
2023/12/11 07:08:57;;;;;;;28.23;2.53;;;8.80;99.90;;;;;;4980750;28;20494;-70
2023/12/11 07:11:24;;;;;;;16.95;2.38;;;8.80;99.90;;;;;;4977904;28;20473;-69
2023/12/11 07:13:50;;;;;;;32.92;3.25;;;8.80;99.90;;;;;;5004773;28;20622;-70
2023/12/11 07:16:16;;;;;;;26.80;3.55;;;8.80;99.90;;;;;;5005255;28;20038;-69
2023/12/11 07:18:42;;;;;;;16.77;2.58;;;8.80;99.90;;;;;;5002785;28;20547;-70
2023/12/11 07:21:09;;;;;;;24.05;3.00;;;8.70;99.90;;;;;;5016390;28;20049;-69
2023/12/11 07:23:35;;;;;;;31.83;3.92;;;8.70;99.90;;;;;;5001659;28;20054;-69
2023/12/11 07:26:01;;;;;;;17.90;2.33;;;8.80;99.90;;;;;;4996140;28;20049;-69
2023/12/11 07:28:26;;;;;;;28.73;2.88;;;8.80;99.90;;;;;;5000867;28;20057;-69
2023/12/11 07:30:52;;;;;;;16.90;2.45;;;8.80;99.90;;;;;;4990367;28;20056;-69
2023/12/11 07:33:18;;;;;;;21.02;2.38;;;8.70;99.90;;;;;;4999297;28;20077;-69
2023/12/11 07:35:43;;;;;;;31.80;3.13;;;8.80;99.90;;;;;;4982999;28;20599;-70
2023/12/11 07:38:09;;;;;;;24.55;2.78;;;8.80;99.90;;;;;;5001193;28;20045;-70
2023/12/11 07:40:35;;;;;;;21.33;2.97;;;8.80;99.90;;;;;;4973834;28;20120;-70
2023/12/11 07:43:01;;;;;;;17.15;2.60;;;8.80;99.90;;;;;;4987444;28;20056;-71
2023/12/11 07:45:28;;;;;;;11.20;2.75;;;8.70;99.90;;;;;;5000596;28;20382;-70
2023/12/11 07:47:54;;;;;;;32.65;2.72;;;8.80;99.90;;;;;;4980167;28;20038;-69
2023/12/11 07:50:19;;;;;;;25.05;3.03;;;8.80;99.90;;;;;;4980198;28;20131;-70
2023/12/11 07:52:45;;;;;;;28.33;2.60;;;8.90;99.90;;;;;;5000199;28;20041;-70
2023/12/11 07:55:11;;;;;;;20.92;2.95;;;8.90;99.90;;;;;;4975104;28;20128;-70
2023/12/11 07:57:37;;;;;;;20.25;2.75;;;8.80;99.90;;;;;;4995318;28;20064;-70
2023/12/11 08:00:05;;;;;;;22.08;2.85;;;8.90;99.90;;;;;;5004149;28;20583;-70
2023/12/11 08:02:31;;;;;;;12.73;2.28;;;8.80;99.90;;;;;;4975730;28;20058;-69
2023/12/11 08:04:56;;;;;;;26.63;2.92;;;8.80;99.90;;;;;;4987149;28;20497;-70
2023/12/11 08:07:22;;;;;;;17.27;2.65;;;8.80;99.90;;;;;;4986547;28;20580;-69
2023/12/11 08:09:49;;;;;;;13.40;2.28;;;8.80;99.90;;;;;;4983436;28;20367;-69
2023/12/11 08:12:14;;;;;;;27.88;2.90;;;8.80;99.90;;;;;;4958780;28;20120;-69
2023/12/11 08:14:40;;;;;;;31.40;3.17;;;8.80;99.90;;;;;;4980431;28;20401;-69
2023/12/11 08:17:06;;;;;;;19.90;2.25;;;8.80;99.90;;;;;;4968044;28;20465;-69
2023/12/11 08:19:33;;;;;;;19.55;2.30;;;8.80;99.90;;;;;;4980554;28;20042;-69
2023/12/11 08:21:59;;;;;;;27.88;3.60;;;8.80;99.90;;;;;;4970540;28;20053;-69
2023/12/11 08:24:25;;;;;;;24.90;2.95;;;8.80;99.90;;;;;;4945912;28;20054;-70
2023/12/11 08:26:50;;;;;;;18.40;2.15;;;8.80;99.90;;;;;;4962185;28;20136;-70
2023/12/11 08:29:19;;;;;;;20.63;2.70;;;8.90;99.90;;;;;;4961703;28;20061;-69
2023/12/11 08:31:45;;;;;;;32.08;2.92;;;8.80;99.90;;;;;;4961951;28;20050;-70
2023/12/11 08:34:11;;;;;;;19.55;2.53;;;8.90;99.90;;;;;;4959186;28;20135;-70
2023/12/11 08:36:36;;;;;;;23.48;3.13;;;8.80;99.90;;;;;;4963408;28;20461;-70
2023/12/11 08:39:03;;;;;;;28.08;2.65;;;8.90;99.90;;;;;;4977128;28;20046;-70
2023/12/11 08:41:29;;;;;;;28.00;2.92;;;8.80;99.90;;;;;;4960903;28;20039;-69
2023/12/11 08:43:55;;;;;;;23.40;2.65;;;8.80;99.90;;;;;;4969766;28;20120;-69
2023/12/11 08:46:22;;;;;;;25.52;2.70;;;8.90;99.90;;;;;;4933957;28;20042;-70
2023/12/11 08:48:48;;;;;;;13.85;2.30;;;8.80;99.90;;;;;;4965621;28;20042;-70
2023/12/11 08:51:17;;;;;;;17.58;2.78;;;8.80;99.90;;;;;;4977265;28;20393;-70
2023/12/11 08:53:44;;;;;;;20.70;2.75;;;8.80;99.90;;;;;;4962032;28;20421;-70
2023/12/11 08:56:10;;;;;;;33.13;2.60;;;8.90;99.90;;;;;;4976694;28;20469;-70
2023/12/11 08:58:36;;;;;;;19.83;2.38;;;8.70;99.90;;;;;;4948551;28;20248;-70
2023/12/11 09:01:03;;;;;;;22.17;3.05;;;8.80;99.90;;;;;;4965167;28;20037;-70
2023/12/11 09:03:29;;;;;;;20.27;2.25;;;8.80;99.90;;;;;;4997613;28;20467;-70
2023/12/11 09:05:55;;;;;;;29.48;3.13;;;8.80;99.90;;;;;;4985648;28;20535;-70
2023/12/11 09:08:21;;;;;;;23.77;2.83;;;8.80;99.90;;;;;;5007964;28;20038;-70
2023/12/11 09:10:49;;;;;;;23.83;2.15;;;8.80;99.90;;;;;;5003364;28;20056;-70
2023/12/11 09:13:18;;;;;;;15.48;2.00;;;8.80;99.90;;;;;;5004823;28;20041;-71
2023/12/11 09:15:43;;;;;;;15.23;2.05;;;8.80;99.90;;;;;;4970230;28;20073;-70
2023/12/11 09:18:15;;;;;;;20.30;2.38;;;9.00;99.90;;;;;;4985500;28;20081;-70
2023/12/11 09:20:41;;;;;;;20.60;2.00;;;9.00;99.90;;;;;;5008268;28;20510;-70
2023/12/11 09:23:08;;;;;;;7.13;1.55;;;9.00;99.90;;;;;;4991358;28;20046;-70
2023/12/11 09:25:34;;;;;;;15.02;2.03;;;9.00;99.90;;;;;;4983144;28;20504;-69
2023/12/11 09:28:00;;;;;;;8.88;1.60;;;9.10;99.90;;;;;;4996580;28;20080;-70
2023/12/11 09:30:26;;;;;;;12.57;1.90;;;9.10;99.90;;;;;;5022239;28;20128;-69
2023/12/11 09:32:52;;;;;;;18.98;2.45;;;9.10;99.90;;;;;;4984376;28;20053;-69
2023/12/11 09:35:18;;;;;;;8.77;1.75;;;9.10;99.90;;;;;;5004817;28;20128;-70
2023/12/11 09:37:45;;;;;;;11.32;1.70;;;9.10;99.90;;;;;;4985184;28;20067;-69
2023/12/11 09:40:12;;;;;;;11.38;1.63;;;9.10;99.90;;;;;;5007163;28;20053;-69
2023/12/11 09:42:41;;;;;;;10.23;2.03;;;9.10;99.90;;;;;;5007576;28;20496;-70
2023/12/11 09:45:08;;;;;;;0.50;0.50;;;9.10;99.90;;;;;;4989551;28;20106;-70
2023/12/11 09:47:43;;;;;;;2.80;0.88;;;9.10;99.90;;;;;;5007660;28;20117;-69
2023/12/11 09:50:09;;;;;;;5.57;0.90;;;9.10;99.90;;;;;;5009906;28;20065;-70
2023/12/11 09:52:42;;;;;;;1.73;0.93;;;9.10;99.90;;;;;;5005769;28;20496;-69
2023/12/11 09:55:09;;;;;;;9.00;2.03;;;9.20;99.90;;;;;;4983411;28;20085;-69
2023/12/11 09:57:37;;;;;;;7.03;1.08;;;9.10;99.90;;;;;;5009209;28;20503;-70
2023/12/11 10:00:04;;;;;;;6.18;1.50;;;9.10;99.90;;;;;;5004401;28;20106;-70
2023/12/11 10:02:30;;;;;;;11.27;2.08;;;9.10;99.90;;;;;;4995754;28;20050;-70
2023/12/11 10:05:03;;;;;;;7.38;1.27;;;9.10;99.90;;;;;;4990860;28;20060;-70
2023/12/11 10:07:30;;;;;;;10.75;2.17;;;9.20;99.90;;;;;;4984632;28;20055;-70
2023/12/11 10:09:56;;;;;;;18.25;3.60;;;9.20;99.90;;;;;;5007908;28;20050;-70
2023/12/11 10:12:22;;;;;;;24.77;4.88;;;9.10;99.90;;;;;;5015824;28;20056;-70
2023/12/11 10:15:01;;;;;;;17.63;3.20;;;9.10;99.90;;;;;;5009799;28;20050;-70
2023/12/11 10:17:27;;;;;;;17.95;2.85;;;9.20;99.90;;;;;;5010462;28;20397;-70
2023/12/11 10:19:53;;;;;;;17.27;3.30;;;9.20;99.90;;;;;;4980392;28;20049;-70
2023/12/11 10:22:31;;;;;;;22.35;4.07;;;9.10;99.90;;;;;;4991913;28;20131;-70
2023/12/11 10:24:58;;;;;;;24.20;4.00;;;9.20;99.90;;;;;;5005909;28;20540;-70
2023/12/11 10:27:27;;;;;;;24.00;5.20;;;9.20;99.90;;;;;;5018041;28;20057;-70
2023/12/11 10:30:27;;;;;;;25.50;4.00;;;9.20;99.90;;;;;;4978465;28;20401;-70
2023/12/11 10:33:02;;;;;;;47.50;7.40;;;9.20;99.90;;;;;;4945539;28;20057;-70
2023/12/11 10:35:29;;;;;;;30.27;4.57;;;9.20;99.90;;;;;;5002294;28;20045;-70
2023/12/11 10:38:04;;;;;;;24.65;5.47;;;9.20;99.90;;;;;;5001418;28;20046;-70
2023/12/11 10:40:41;;;;;;;23.83;4.13;;;9.20;99.90;;;;;;5013104;28;20046;-70
2023/12/11 10:43:07;;;;;;;45.20;10.20;;;9.30;99.90;;;;;;4994124;28;20183;-70
2023/12/11 10:45:34;;;;;;;37.75;5.30;;;9.30;99.90;;;;;;4996548;28;20789;-69
2023/12/11 10:48:01;;;;;;;30.33;7.63;;;9.30;99.90;;;;;;4998524;28;20348;-70
2023/12/11 10:50:27;;;;;;;31.90;6.45;;;9.30;99.90;;;;;;5017117;28;20072;-70
2023/12/11 10:52:53;;;;;;;37.97;6.20;;;9.40;99.90;;;;;;5016203;28;20126;-70
2023/12/11 10:55:19;;;;;;;38.67;5.13;;;9.40;99.90;;;;;;5020186;28;20052;-69
2023/12/11 10:57:46;;;;;;;27.13;3.78;;;9.40;99.90;;;;;;5009991;28;20042;-70
2023/12/11 11:00:14;;;;;;;32.95;5.88;;;9.50;99.90;;;;;;4987106;28;20046;-70
2023/12/11 11:02:46;;;;;;;29.33;6.75;;;9.50;99.90;;;;;;4967191;28;20084;-70
2023/12/11 11:05:13;;;;;;;40.38;8.00;;;9.50;99.90;;;;;;4983665;28;20049;-70
2023/12/11 11:07:50;;;;;;;39.30;8.57;;;9.50;99.90;;;;;;4984137;28;20053;-70
2023/12/11 11:10:23;;;;;;;36.35;5.93;;;9.50;99.90;;;;;;5001810;28;20053;-70
2023/12/11 11:13:02;;;;;;;41.83;7.22;;;9.60;99.90;;;;;;5009809;28;20399;-69
2023/12/11 11:15:28;;;;;;;28.67;4.55;;;9.50;99.90;;;;;;4966752;28;20065;-70
2023/12/11 11:17:59;;;;;;;33.53;4.18;;;9.70;99.90;;;;;;5000504;28;20496;-70
2023/12/11 11:20:29;;;;;;;39.53;5.95;;;9.60;99.90;;;;;;5036899;28;20057;-70
2023/12/11 11:23:15;;;;;;;22.67;4.10;;;9.60;99.90;;;;;;5017343;28;20427;-70
2023/12/11 11:25:41;;;;;;;33.17;6.32;;;9.60;99.90;;;;;;4987386;28;20049;-71
2023/12/11 11:28:34;;;;;;;44.63;8.38;;;9.60;99.90;;;;;;5001000;28;20061;-70
2023/12/11 11:31:00;;;;;;;52.08;6.05;;;9.50;99.90;;;;;;5000651;28;20120;-70
2023/12/11 11:33:46;;;;;;;32.55;5.38;;;9.60;99.90;;;;;;4997436;28;20152;-71
2023/12/11 11:36:16;;;;;;;42.65;6.88;;;9.60;99.90;;;;;;5025048;28;20120;-70
2023/12/11 11:38:53;;;;;;;;;;;9.70;99.90;;;;;;4988009;28;20084;-70
2023/12/11 11:41:23;;;;;;;50.92;8.85;;;9.60;99.90;;;;;;5005898;28;20275;-70
2023/12/11 11:44:18;;;;;;;26.88;4.93;;;9.60;99.90;;;;;;4999722;28;20442;-70
2023/12/11 11:47:03;;;;;;;35.05;7.75;;;9.60;99.90;;;;;;4988000;28;20049;-70
2023/12/11 11:49:34;;;;;;;28.85;4.43;;;9.60;99.90;;;;;;4984099;28;20053;-70
2023/12/11 11:52:09;;;;;;;34.13;5.80;;;9.50;99.90;;;;;;5000727;28;20046;-70
2023/12/11 11:54:39;;;;;;;37.08;6.72;;;9.60;99.90;;;;;;4989850;28;20088;-70
2023/12/11 11:57:06;;;;;;;32.83;5.35;;;9.50;99.90;;;;;;5000230;28;20050;-71
2023/12/11 11:59:41;;;;;;;33.72;4.65;;;9.50;99.90;;;;;;4989781;28;20072;-71
2023/12/11 12:02:07;;;;;;;31.83;3.83;;;9.50;99.90;;;;;;4974585;28;20058;-70
2023/12/11 12:04:34;;;;;;;27.77;3.63;;;9.50;99.90;;;;;;4994549;28;20099;-70
2023/12/11 12:07:05;;;;;;;17.55;3.03;;;9.60;99.90;;;;;;5001970;28;20049;-71
2023/12/11 12:09:32;;;;;;;20.83;2.80;;;9.50;99.90;;;;;;4982945;28;20045;-70
2023/12/11 12:11:58;;;;;;;17.75;3.20;;;9.50;99.90;;;;;;5001991;28;20057;-70
2023/12/11 12:14:27;;;;;;;16.17;2.72;;;9.50;99.90;;;;;;5050793;23;20058;-70
2023/12/11 12:16:55;;;;;;;5.72;1.60;;;9.50;99.90;;;;;;4932281;28;20381;-70
2023/12/11 12:19:31;;;;;;;16.73;3.42;;;9.50;99.90;;;;;;4978410;28;20054;-71
2023/12/11 12:21:58;;;;;;;28.38;4.35;;;9.40;99.90;;;;;;4965419;28;20539;-70
2023/12/11 12:24:25;;;;;;;16.88;4.95;;;9.50;99.90;;;;;;4980471;28;20121;-70
2023/12/11 12:26:59;;;;;;;12.00;2.20;;;9.40;99.90;;;;;;4969019;28;20077;-71
2023/12/11 12:29:31;;;;;;;15.88;2.50;;;9.40;99.90;;;;;;4988628;28;20088;-70
2023/12/11 12:31:59;;;;;;;12.05;2.10;;;9.40;99.90;;;;;;4951389;28;20058;-71
2023/12/11 12:34:26;;;;;;;11.30;2.33;;;9.40;99.90;;;;;;4962396;28;20133;-70
2023/12/11 12:36:54;;;;;;;12.57;2.72;;;9.30;99.90;;;;;;4971419;28;20046;-70
2023/12/11 12:39:21;;;;;;;11.05;2.22;;;9.30;99.90;;;;;;4964956;28;20038;-70
2023/12/11 12:41:50;;;;;;;10.20;1.70;;;9.20;99.90;;;;;;4986807;28;20540;-70
2023/12/11 12:44:18;;;;;;;12.73;2.13;;;9.20;99.90;;;;;;4978795;28;20479;-70
2023/12/11 12:46:45;;;;;;;18.42;3.60;;;9.20;99.90;;;;;;4978883;28;20192;-70
2023/12/11 12:49:12;;;;;;;11.80;2.47;;;9.20;99.90;;;;;;4981615;28;20065;-71